KCLE/CLE METAR and TAF weather

Enter ICAO airport designator
Station Type Date Time Source
KCLE METAR 2022/05/24 11:51 UTC NOAA

KCLE 241151Z 03010KT 10SM FEW250 13/08 A3022 RMK AO2 SLP249 T01280083 10128 20100 53007


Station Type Date Time Source
KCLE Decoded METAR 2022/05/24 11:51 UTC NOAA

CLEVELAND-HOPKINS INTERNATIONAL , OH, United States (KCLE) 41-24N 081-51W 236M
May 24, 2022 - 07:51 AM EDT / 2022.05.24 1151 UTC
Wind: from the NNE (030 degrees) at 12 MPH (10 KT):0
Visibility: 10 mile(s):0
Sky conditions: mostly clear
Temperature: 55.0 F (12.8 C)
Dew Point: 46.9 F (8.3 C)
Relative Humidity: 74%
Pressure (altimeter): 30.22 in. Hg (1023 hPa)
Pressure tendency: 0.02 inches (0.7 hPa) higher than three hours ago
ob: KCLE 241151Z 03010KT 10SM FEW250 13/08 A3022 RMK AO2 SLP249 T01280083 10128 20100 53007
cycle: 12

Station Type Date Time Source
KCLE TAF 2022/05/24 12:27 UTC NOAA

TAF KCLE 241125Z 2412/2518 04010KT P6SM SCT250
FM242300 08005KT P6SM BKN120
FM251200 13008KT P6SM BKN070

Example: see airport list